This is the latest recevied weather packets stored in our database for station/object K7OLI-13. If no packets are shown the sender has not sent any weather packets the latest 10 day(s).
| Time | Temp. | Humidity | Pressure | Rain* | Wind** | Luminosity | Snow |
|---|---|---|---|---|---|---|---|
| 1777656630 | 17.78° C | 67% | 1014.2 hPa | 0 mm | - | - | - |
| 1777652453 | 15.56° C | 77% | 1014.2 hPa | 0 mm | - | - | - |
| 1777651255 | 13.33° C | 83% | 1014.2 hPa | 0 mm | - | - | - |
| 1777648822 | 12.78° C | 86% | 1014.2 hPa | 0 mm | - | - | - |
| 1777648233 | 12.22° C | 87% | 1014.2 hPa | 0 mm | - | - | - |
| 1777647642 | 12.22° C | 87% | 1014.2 hPa | 0 mm | - | - | - |
| 1777642219 | 10° C | 94% | 1013.2 hPa | 0 mm | - | - | - |
| 1777640424 | 10° C | 93% | 1013.2 hPa | 0 mm | - | - | - |
| 1777638019 | 10.56° C | 92% | 1012.2 hPa | 0 mm | - | - | - |
| 1777636224 | 10.56° C | 92% | 1012.2 hPa | 0 mm | - | - | - |
| 1777629637 | 11.67° C | 86% | 1012.2 hPa | 0 mm | - | - | - |
| 1777628434 | 12.22° C | 85% | 1012.2 hPa | 0 mm | - | - | - |
| 1777624238 | 13.89° C | 75% | 1012.2 hPa | 0 mm | - | - | - |
| 1777620050 | 15.56° C | 69% | 1011.2 hPa | 0 mm | - | - | - |
| 1777618222 | 15° C | 71% | 1011.2 hPa | 0 mm | - | - | - |
| 1777616430 | 15.56° C | 69% | 1011.2 hPa | 0 mm | - | - | - |
| 1777609231 | 17.78° C | 61% | 1011.2 hPa | 0 mm | - | - | - |
| 1777608025 | 18.33° C | 61% | 1010.2 hPa | 0 mm | - | - | - |
| 1777606230 | 18.89° C | 61% | 1010.2 hPa | 0 mm | - | - | - |
| 1777605022 | 19.44° C | 60% | 1010.2 hPa | 0 mm | - | - | - |
| 1777603231 | 20.56° C | 57% | 1010.2 hPa | 0 mm | - | - | - |
| 1777601422 | 21.67° C | 54% | 1010.1 hPa | 0 mm | - | - | - |
| 1777600825 | 22.22° C | 53% | 1010.1 hPa | 0 mm | - | - | - |
| 1777600233 | 23.33° C | 51% | 1010.1 hPa | 0 mm | - | - | - |
| 1777598419 | 26.67° C | 39% | 1010.2 hPa | 0 mm | - | - | - |
* Rain latest hour (hover to see other rain measurements)
** Current wind speed in m/s (hover to see current wind gust speed)